Snohomish County (Paine Field) Airport
KPAE : now visible

Airfield :











YOU CAN JOIN US ON...

 
LOGIN :

Register | Disclaimer

   EN    FR    IT 

 









Legend :    VFR   Marginal VFR   IFR   Intensive IFR   Very Intensive IFR
Visi :
Ceiling :
>= 8 km
>= 3000ft
5 to 8 km
1000 to 3000 ft
1500m to 5 km
500 to 1000 ft
800 to 1500m
200 to 500 ft
< 800m
< 200 ft
Symbols :   Thunderstorms  Fog  Heavy snow  Heavy precipitations  Wind > 20 kt






- Airport Elevation : 606 ft
- IATA code : PAE


KPAE - Snohomish County (Paine Field)

CURRENT METAR :
  • 210253Z AUTO 00000KT 10SM CLR 16/12 A3002 RMK AO2 SLP164 T01610117 56006

EXPIRED METARs :
  • 210153Z AUTO 00000KT 10SM CLR 18/12 A3002 RMK AO2 SLP165 T01780117
  • 210053Z AUTO VRB04KT 10SM CLR 19/12 A3003 RMK AO2 SLP168 T01890117

TAF KPAE
Valid from the 21 at 00:00 until the 22 at 00:00 UTC


202330Z 2100/2124 26005KT P6SM SCT025 SCT250
FM210300 04004KT P6SM SCT040 SCT200
FM211400 08002KT P6SM BKN004
FM211800 25004KT P6SM BKN250
KZSE FIR / North America



MET'MAP, your aeronautical weather chart ! - Copyright ORBIFLY December 2007 - Disclaimer

ORBIFLY MET'MAP TEAM :

Programming & Development : Alexandra Zaïnal
Concept & original design : Baudouin d'Aumeries
Assistance for programming : Marc-Olivier Méhu
Technical & hardware support : Manuel Goepfert

Contact : metmap@orbifly.com




SOURCES & CREDITS :

   NOAA       Earth
Advisory